Terminal Aerodrome Forecast
Issued by NWS

Home | Current Version | Previous Version | Text Only | Print | Product List | Glossary On
Versions: 1 2 3 4 5 6 7 8 9 10 11 12 13 14 15 16 17 18 19 20 21 22 23 24 25 26 27 28
000
FTUS41 KPHI 231300 AAA
TAFMIV
TAF AMD
KMIV 231312Z 2313/2412 08004KT P6SM SCT020 BKN090
     FM231800 09009KT P6SM -SHRA SCT025 BKN050
     FM232300 08007KT P6SM SCT050 BKN120
     FM240600 04003KT P6SM SCT050 SCT120
     FM240900 00000KT 5SM BR SCT120=

USA.gov is the U.S. government's official web portal to all federal, state and local government web resources and services.